Chicago, IL

10:47 PM CDT en Septiembre 18, 2014 (GMT -0500)
West Loop - Old St. Pats | Change Station
CLOSE
Current Station
Estación meteorológica personal
Location: Chicago, IL
Altura: 548 ft
Estaciones meteorológicas cercanas

Alt 548 ft 41.88 °N, 87.64 °W | Updated 3 seconds ago

Despejado
Despejado
62.2 ° F
Sensación térmica 62.2 ° F
N
1.0
Viento Variable Viento desde OSO
Gusts 3.0 mph

Hoy
Alta -- | Baja -- ° F
--% Posibilidad de precipitaciones
Ayer
Alta -- | Baja -- ° F
Precip. -- pul
6:33 AM 6:54 PM
Creciente menguante, 22% visible
Presión 30.14 pul
Visibilidad 9.0 Millas
Nubes Baja 1200 ft
Punto de rocío 59 ° F
Humedad 89%
Precipitaciones 0.00 pul
Espesor de la nieve No disponible.
UV 0 de una escala de 12
Polen 4.40 de una escala de 12
Ozono Buena
PM2.5 Moderada
Flu Activity No disponible.
METAR KMDW 190251Z 04006KT 9SM FEW012 16/14 A3015 RMK AO2 SLP205 T01610139 51011

More Conditions Fewer Conditions

Presión 30.14 pul
Visibilidad 9.0 Millas
Nubes Baja 1200 ft
Punto de rocío 59 ° F
Humedad 89%
Precipitaciones 0.00 pul
Espesor de la nieve No disponible.
UV 0 de una escala de 12
Polen 4.40 de una escala de 12
Ozono Buena
PM2.5 Moderada
Flu Activity No disponible.
METAR KMDW 190251Z 04006KT 9SM FEW012 16/14 A3015 RMK AO2 SLP205 T01610139 51011

More Conditions Fewer Conditions

10-Day Weather Forecast

Almanac

Astronomía

Sep. 18, 2014 Salida Puesta
Hora real 6:33 AM CDT 6:54 PM CDT
Crepúsculo civil 6:05 AM CDT 7:22 PM CDT
Crepúsculo náutico 5:33 AM CDT 7:55 PM CDT
Crepúsculo astronómico 4:59 AM CDT 8:28 PM CDT
Luna 1:21 AM CDT (9/18) 3:49 PM CDT (9/18)
Horas de luz 13h 16m
Horas de luz
12h 20m
Tomorrow will be 2m 47s shorter.
Creciente menguante, 22% of the Moon is Illuminated
Hoy
Creciente menguante
Sep 24
Nueva
Oct 1
Cuarto creciente
Oct 8
Luna llena
Oct 15
Cuarto menguante

Extremos de hoy

Máximos del estado Bajos del estado

Community

WunderPhotos

Upload Photos

1,754,553 ¡fotos cargadas!

Nearby

Calidad del aire

  Calidad del aire Índice AQ Contaminante
Ayer Moderada
PM2.5
Ayer Buena
OZONE
Real Moderada
PM2.5
Real Buena
OZONE
Jueves Moderada
PM2.5
Viernes Moderada
PM2.5
Sábado Moderada
PM2.5
Domingo Buena
PM2.5

Grosos de nieve

Estación Profundido Altura
No tenemos constancia de nieve nueva.

Actividad de terremotos

Ciudad Distance Mag. Tiempo y dato
No hay informes recientes de la actividad sísmica.
Magnitud mínima muestra es 2,5.

Temperaturas de aguas costeras

Lugar Temperatura
Sin partes meteorológicos de las estaciones

Estaciones meteorológicas cercanas